sensor_id;sensor_type;location;lat;lon;timestamp;temperature;humidity
16417;DHT22;8317;52.186;5.688;2022-07-10T00:00:25;15.70;99.90
16417;DHT22;8317;52.186;5.688;2022-07-10T00:02:53;15.60;99.90
16417;DHT22;8317;52.186;5.688;2022-07-10T00:05:20;15.60;99.90
16417;DHT22;8317;52.186;5.688;2022-07-10T00:07:47;15.60;99.90
16417;DHT22;8317;52.186;5.688;2022-07-10T00:10:14;15.60;99.90
16417;DHT22;8317;52.186;5.688;2022-07-10T00:12:41;15.60;99.90
16417;DHT22;8317;52.186;5.688;2022-07-10T00:15:10;15.60;99.90
16417;DHT22;8317;52.186;5.688;2022-07-10T00:17:37;15.50;99.90
16417;DHT22;8317;52.186;5.688;2022-07-10T00:20:06;15.60;99.90
16417;DHT22;8317;52.186;5.688;2022-07-10T00:22:33;15.50;99.90
16417;DHT22;8317;52.186;5.688;2022-07-10T00:25:00;15.50;99.90
16417;DHT22;8317;52.186;5.688;2022-07-10T00:27:27;15.60;99.90
16417;DHT22;8317;52.186;5.688;2022-07-10T00:29:53;15.50;99.90
16417;DHT22;8317;52.186;5.688;2022-07-10T00:32:22;15.50;99.90
16417;DHT22;8317;52.186;5.688;2022-07-10T00:34:49;15.50;99.90
16417;DHT22;8317;52.186;5.688;2022-07-10T00:37:15;15.40;99.90
16417;DHT22;8317;52.186;5.688;2022-07-10T00:39:42;15.40;99.90
16417;DHT22;8317;52.186;5.688;2022-07-10T00:42:11;15.40;99.90
16417;DHT22;8317;52.186;5.688;2022-07-10T00:44:39;15.40;99.90
16417;DHT22;8317;52.186;5.688;2022-07-10T00:47:07;15.40;99.90
16417;DHT22;8317;52.186;5.688;2022-07-10T00:49:37;15.40;99.90
16417;DHT22;8317;52.186;5.688;2022-07-10T00:52:07;15.50;99.90
16417;DHT22;8317;52.186;5.688;2022-07-10T00:54:34;15.50;99.90
16417;DHT22;8317;52.186;5.688;2022-07-10T00:57:04;15.60;99.90
16417;DHT22;8317;52.186;5.688;2022-07-10T00:59:31;15.60;99.90
16417;DHT22;8317;52.186;5.688;2022-07-10T01:01:58;15.50;99.90
16417;DHT22;8317;52.186;5.688;2022-07-10T01:04:25;15.50;99.90
16417;DHT22;8317;52.186;5.688;2022-07-10T01:06:53;15.50;99.90
16417;DHT22;8317;52.186;5.688;2022-07-10T01:09:20;15.50;99.90
16417;DHT22;8317;52.186;5.688;2022-07-10T01:11:47;15.50;99.90
16417;DHT22;8317;52.186;5.688;2022-07-10T01:14:15;15.50;99.90
16417;DHT22;8317;52.186;5.688;2022-07-10T01:16:42;15.40;99.90
16417;DHT22;8317;52.186;5.688;2022-07-10T01:19:09;15.40;99.90
16417;DHT22;8317;52.186;5.688;2022-07-10T01:21:37;15.30;99.90
16417;DHT22;8317;52.186;5.688;2022-07-10T01:24:07;15.20;99.90
16417;DHT22;8317;52.186;5.688;2022-07-10T01:26:35;15.20;99.90
16417;DHT22;8317;52.186;5.688;2022-07-10T01:29:03;15.20;99.90
16417;DHT22;8317;52.186;5.688;2022-07-10T01:31:30;15.20;99.90
16417;DHT22;8317;52.186;5.688;2022-07-10T01:33:59;15.10;99.90
16417;DHT22;8317;52.186;5.688;2022-07-10T01:36:28;15.10;99.90
16417;DHT22;8317;52.186;5.688;2022-07-10T01:38:57;15.10;99.90
16417;DHT22;8317;52.186;5.688;2022-07-10T01:41:25;15.10;99.90
16417;DHT22;8317;52.186;5.688;2022-07-10T01:43:53;15.20;99.90
16417;DHT22;8317;52.186;5.688;2022-07-10T01:46:20;15.20;99.90
16417;DHT22;8317;52.186;5.688;2022-07-10T01:48:46;15.20;99.90
16417;DHT22;8317;52.186;5.688;2022-07-10T01:51:14;15.20;99.90
16417;DHT22;8317;52.186;5.688;2022-07-10T01:53:41;15.20;99.90
16417;DHT22;8317;52.186;5.688;2022-07-10T01:56:11;15.20;99.90
16417;DHT22;8317;52.186;5.688;2022-07-10T01:58:38;15.30;99.90
16417;DHT22;8317;52.186;5.688;2022-07-10T02:01:06;15.30;99.90
16417;DHT22;8317;52.186;5.688;2022-07-10T02:03:33;15.30;99.90
16417;DHT22;8317;52.186;5.688;2022-07-10T02:06:17;15.20;99.90
16417;DHT22;8317;52.186;5.688;2022-07-10T02:08:44;15.20;99.90
16417;DHT22;8317;52.186;5.688;2022-07-10T02:11:13;15.30;99.90
16417;DHT22;8317;52.186;5.688;2022-07-10T02:13:40;15.30;99.90
16417;DHT22;8317;52.186;5.688;2022-07-10T02:16:07;15.30;99.90
16417;DHT22;8317;52.186;5.688;2022-07-10T02:18:34;15.40;99.90
16417;DHT22;8317;52.186;5.688;2022-07-10T02:21:01;15.30;99.90
16417;DHT22;8317;52.186;5.688;2022-07-10T02:23:28;15.30;99.90
16417;DHT22;8317;52.186;5.688;2022-07-10T02:25:55;15.30;99.90
16417;DHT22;8317;52.186;5.688;2022-07-10T02:28:23;15.30;99.90
16417;DHT22;8317;52.186;5.688;2022-07-10T02:30:50;15.30;99.90
16417;DHT22;8317;52.186;5.688;2022-07-10T02:33:17;15.30;99.90
16417;DHT22;8317;52.186;5.688;2022-07-10T02:35:43;15.30;99.90
16417;DHT22;8317;52.186;5.688;2022-07-10T02:38:10;15.40;99.90
16417;DHT22;8317;52.186;5.688;2022-07-10T02:40:37;15.40;99.90
16417;DHT22;8317;52.186;5.688;2022-07-10T02:43:04;15.40;99.90
16417;DHT22;8317;52.186;5.688;2022-07-10T02:45:32;15.40;99.90
16417;DHT22;8317;52.186;5.688;2022-07-10T02:47:59;15.40;99.90
16417;DHT22;8317;52.186;5.688;2022-07-10T02:50:26;15.40;99.90
16417;DHT22;8317;52.186;5.688;2022-07-10T02:52:53;15.40;99.90
16417;DHT22;8317;52.186;5.688;2022-07-10T02:55:20;15.40;99.90
16417;DHT22;8317;52.186;5.688;2022-07-10T02:57:47;15.40;99.90
16417;DHT22;8317;52.186;5.688;2022-07-10T03:00:14;15.30;99.90
16417;DHT22;8317;52.186;5.688;2022-07-10T03:02:42;15.30;99.90
16417;DHT22;8317;52.186;5.688;2022-07-10T03:05:09;15.30;99.90
16417;DHT22;8317;52.186;5.688;2022-07-10T03:07:35;15.40;99.90
16417;DHT22;8317;52.186;5.688;2022-07-10T03:10:03;15.40;99.90
16417;DHT22;8317;52.186;5.688;2022-07-10T03:12:30;15.40;99.90
16417;DHT22;8317;52.186;5.688;2022-07-10T03:14:57;15.30;99.90
16417;DHT22;8317;52.186;5.688;2022-07-10T03:17:24;15.40;99.90
16417;DHT22;8317;52.186;5.688;2022-07-10T03:19:53;15.40;99.90
16417;DHT22;8317;52.186;5.688;2022-07-10T03:22:20;15.40;99.90
16417;DHT22;8317;52.186;5.688;2022-07-10T03:24:47;15.40;99.90
16417;DHT22;8317;52.186;5.688;2022-07-10T03:27:14;15.40;99.90
16417;DHT22;8317;52.186;5.688;2022-07-10T03:29:41;15.40;99.90
16417;DHT22;8317;52.186;5.688;2022-07-10T03:32:08;15.40;99.90
16417;DHT22;8317;52.186;5.688;2022-07-10T03:34:35;15.40;99.90
16417;DHT22;8317;52.186;5.688;2022-07-10T03:37:04;15.30;99.90
16417;DHT22;8317;52.186;5.688;2022-07-10T03:39:31;15.30;99.90
16417;DHT22;8317;52.186;5.688;2022-07-10T03:41:58;15.30;99.90
16417;DHT22;8317;52.186;5.688;2022-07-10T03:44:25;15.30;99.90
16417;DHT22;8317;52.186;5.688;2022-07-10T03:46:52;15.30;99.90
16417;DHT22;8317;52.186;5.688;2022-07-10T03:49:19;15.30;99.90
16417;DHT22;8317;52.186;5.688;2022-07-10T03:51:46;15.30;99.90
16417;DHT22;8317;52.186;5.688;2022-07-10T03:54:15;15.40;99.90
16417;DHT22;8317;52.186;5.688;2022-07-10T03:56:42;15.40;99.90
16417;DHT22;8317;52.186;5.688;2022-07-10T03:59:26;15.40;99.90
16417;DHT22;8317;52.186;5.688;2022-07-10T04:01:53;15.40;99.90
16417;DHT22;8317;52.186;5.688;2022-07-10T04:04:19;15.40;99.90
16417;DHT22;8317;52.186;5.688;2022-07-10T04:06:46;15.40;99.90
16417;DHT22;8317;52.186;5.688;2022-07-10T04:09:15;15.40;99.90
16417;DHT22;8317;52.186;5.688;2022-07-10T04:11:41;15.40;99.90
16417;DHT22;8317;52.186;5.688;2022-07-10T04:14:08;15.30;99.90
16417;DHT22;8317;52.186;5.688;2022-07-10T04:16:35;15.30;99.90
16417;DHT22;8317;52.186;5.688;2022-07-10T04:19:02;15.30;99.90
16417;DHT22;8317;52.186;5.688;2022-07-10T04:21:29;15.40;99.90
16417;DHT22;8317;52.186;5.688;2022-07-10T04:23:56;15.40;99.90
16417;DHT22;8317;52.186;5.688;2022-07-10T04:26:24;15.40;99.90
16417;DHT22;8317;52.186;5.688;2022-07-10T04:28:51;15.50;99.90
16417;DHT22;8317;52.186;5.688;2022-07-10T04:31:18;15.40;99.90
16417;DHT22;8317;52.186;5.688;2022-07-10T04:33:44;15.40;99.90
16417;DHT22;8317;52.186;5.688;2022-07-10T04:36:11;15.40;99.90
16417;DHT22;8317;52.186;5.688;2022-07-10T04:38:38;15.40;99.90
16417;DHT22;8317;52.186;5.688;2022-07-10T04:41:05;15.40;99.90
16417;DHT22;8317;52.186;5.688;2022-07-10T04:43:33;15.40;99.90
16417;DHT22;8317;52.186;5.688;2022-07-10T04:46:00;15.40;99.90
16417;DHT22;8317;52.186;5.688;2022-07-10T04:48:27;15.40;99.90
16417;DHT22;8317;52.186;5.688;2022-07-10T04:50:54;15.50;99.90
16417;DHT22;8317;52.186;5.688;2022-07-10T04:53:21;15.50;99.90
16417;DHT22;8317;52.186;5.688;2022-07-10T04:55:48;15.50;99.90
16417;DHT22;8317;52.186;5.688;2022-07-10T04:58:14;15.50;99.90
16417;DHT22;8317;52.186;5.688;2022-07-10T05:00:43;15.60;99.90
16417;DHT22;8317;52.186;5.688;2022-07-10T05:03:10;15.70;99.90
16417;DHT22;8317;52.186;5.688;2022-07-10T05:05:36;15.60;99.90
16417;DHT22;8317;52.186;5.688;2022-07-10T05:08:04;15.60;99.90
16417;DHT22;8317;52.186;5.688;2022-07-10T05:10:31;15.60;99.90
16417;DHT22;8317;52.186;5.688;2022-07-10T05:12:57;15.60;99.90
16417;DHT22;8317;52.186;5.688;2022-07-10T05:15:24;15.70;99.90
16417;DHT22;8317;52.186;5.688;2022-07-10T05:17:52;15.70;99.90
16417;DHT22;8317;52.186;5.688;2022-07-10T05:20:19;15.70;99.90
16417;DHT22;8317;52.186;5.688;2022-07-10T05:22:46;15.70;99.90
16417;DHT22;8317;52.186;5.688;2022-07-10T05:25:13;15.70;99.90
16417;DHT22;8317;52.186;5.688;2022-07-10T05:27:40;15.60;99.90
16417;DHT22;8317;52.186;5.688;2022-07-10T05:30:08;15.70;99.90
16417;DHT22;8317;52.186;5.688;2022-07-10T05:32:42;15.60;99.90
16417;DHT22;8317;52.186;5.688;2022-07-10T05:35:10;15.60;99.90
16417;DHT22;8317;52.186;5.688;2022-07-10T05:37:37;15.60;99.90
16417;DHT22;8317;52.186;5.688;2022-07-10T05:40:05;15.70;99.90
16417;DHT22;8317;52.186;5.688;2022-07-10T05:42:33;15.70;99.90
16417;DHT22;8317;52.186;5.688;2022-07-10T05:45:00;15.70;99.90
16417;DHT22;8317;52.186;5.688;2022-07-10T05:47:27;15.70;99.90
16417;DHT22;8317;52.186;5.688;2022-07-10T05:49:54;15.70;99.90
16417;DHT22;8317;52.186;5.688;2022-07-10T05:52:22;15.70;99.90
16417;DHT22;8317;52.186;5.688;2022-07-10T05:54:49;15.70;99.90
16417;DHT22;8317;52.186;5.688;2022-07-10T05:57:16;15.70;99.90
16417;DHT22;8317;52.186;5.688;2022-07-10T05:59:43;15.70;99.90
16417;DHT22;8317;52.186;5.688;2022-07-10T06:02:10;15.70;99.90
16417;DHT22;8317;52.186;5.688;2022-07-10T06:04:36;15.70;99.90
16417;DHT22;8317;52.186;5.688;2022-07-10T06:07:04;15.70;99.90
16417;DHT22;8317;52.186;5.688;2022-07-10T06:09:32;15.70;99.90
16417;DHT22;8317;52.186;5.688;2022-07-10T06:11:59;15.80;99.90
16417;DHT22;8317;52.186;5.688;2022-07-10T06:14:26;15.70;99.90
16417;DHT22;8317;52.186;5.688;2022-07-10T06:16:53;15.70;99.90
16417;DHT22;8317;52.186;5.688;2022-07-10T06:19:20;15.60;99.90
16417;DHT22;8317;52.186;5.688;2022-07-10T06:21:46;15.60;99.90
16417;DHT22;8317;52.186;5.688;2022-07-10T06:24:13;15.50;99.90
16417;DHT22;8317;52.186;5.688;2022-07-10T06:26:41;15.50;99.90
16417;DHT22;8317;52.186;5.688;2022-07-10T06:29:08;15.40;99.90
16417;DHT22;8317;52.186;5.688;2022-07-10T06:31:38;15.40;99.90
16417;DHT22;8317;52.186;5.688;2022-07-10T06:34:09;15.50;99.90
16417;DHT22;8317;52.186;5.688;2022-07-10T06:36:36;15.50;99.90
16417;DHT22;8317;52.186;5.688;2022-07-10T06:39:03;15.40;99.90
16417;DHT22;8317;52.186;5.688;2022-07-10T06:41:30;15.50;99.90
16417;DHT22;8317;52.186;5.688;2022-07-10T06:43:58;15.40;99.90
16417;DHT22;8317;52.186;5.688;2022-07-10T06:46:26;15.50;99.90
16417;DHT22;8317;52.186;5.688;2022-07-10T06:48:53;15.50;99.90
16417;DHT22;8317;52.186;5.688;2022-07-10T06:51:19;15.60;99.90
16417;DHT22;8317;52.186;5.688;2022-07-10T06:53:46;15.60;99.90
16417;DHT22;8317;52.186;5.688;2022-07-10T06:56:13;15.60;99.90
16417;DHT22;8317;52.186;5.688;2022-07-10T06:58:41;15.70;99.90
16417;DHT22;8317;52.186;5.688;2022-07-10T07:01:10;15.70;99.90
16417;DHT22;8317;52.186;5.688;2022-07-10T07:03:36;15.80;99.90
16417;DHT22;8317;52.186;5.688;2022-07-10T07:06:04;15.80;99.90
16417;DHT22;8317;52.186;5.688;2022-07-10T07:08:31;15.90;99.90
16417;DHT22;8317;52.186;5.688;2022-07-10T07:10:58;15.90;99.90
16417;DHT22;8317;52.186;5.688;2022-07-10T07:13:24;15.80;99.90
16417;DHT22;8317;52.186;5.688;2022-07-10T07:15:51;15.80;99.90
16417;DHT22;8317;52.186;5.688;2022-07-10T07:18:25;15.80;99.90
16417;DHT22;8317;52.186;5.688;2022-07-10T07:20:58;15.80;99.90
16417;DHT22;8317;52.186;5.688;2022-07-10T07:23:42;15.70;99.90
16417;DHT22;8317;52.186;5.688;2022-07-10T07:26:09;15.80;99.90
16417;DHT22;8317;52.186;5.688;2022-07-10T07:28:36;15.80;99.90
16417;DHT22;8317;52.186;5.688;2022-07-10T07:31:03;15.90;99.90
16417;DHT22;8317;52.186;5.688;2022-07-10T07:33:31;15.90;99.90
16417;DHT22;8317;52.186;5.688;2022-07-10T07:35:58;16.00;99.90
16417;DHT22;8317;52.186;5.688;2022-07-10T07:38:25;16.00;99.90
16417;DHT22;8317;52.186;5.688;2022-07-10T07:40:52;16.00;99.90
16417;DHT22;8317;52.186;5.688;2022-07-10T07:43:19;15.90;99.90
16417;DHT22;8317;52.186;5.688;2022-07-10T07:45:46;15.90;99.90
16417;DHT22;8317;52.186;5.688;2022-07-10T07:48:13;15.90;99.90
16417;DHT22;8317;52.186;5.688;2022-07-10T07:50:41;16.00;99.90
16417;DHT22;8317;52.186;5.688;2022-07-10T07:53:08;16.00;99.90
16417;DHT22;8317;52.186;5.688;2022-07-10T07:55:35;15.90;99.90
16417;DHT22;8317;52.186;5.688;2022-07-10T07:58:03;15.90;99.90
16417;DHT22;8317;52.186;5.688;2022-07-10T08:00:30;16.00;99.90
16417;DHT22;8317;52.186;5.688;2022-07-10T08:02:58;16.00;99.90
16417;DHT22;8317;52.186;5.688;2022-07-10T08:05:26;16.00;99.90
16417;DHT22;8317;52.186;5.688;2022-07-10T08:07:56;16.00;99.90
16417;DHT22;8317;52.186;5.688;2022-07-10T08:10:26;16.10;99.90
16417;DHT22;8317;52.186;5.688;2022-07-10T08:12:53;16.10;99.90
16417;DHT22;8317;52.186;5.688;2022-07-10T08:15:21;16.10;99.90
16417;DHT22;8317;52.186;5.688;2022-07-10T08:17:49;16.20;99.90
16417;DHT22;8317;52.186;5.688;2022-07-10T08:20:16;16.20;99.90
16417;DHT22;8317;52.186;5.688;2022-07-10T08:22:44;16.30;99.90
16417;DHT22;8317;52.186;5.688;2022-07-10T08:25:13;16.40;99.90
16417;DHT22;8317;52.186;5.688;2022-07-10T08:27:40;16.50;99.90
16417;DHT22;8317;52.186;5.688;2022-07-10T08:30:09;16.70;99.90
16417;DHT22;8317;52.186;5.688;2022-07-10T08:32:36;16.70;99.90
16417;DHT22;8317;52.186;5.688;2022-07-10T08:35:04;16.70;99.90
16417;DHT22;8317;52.186;5.688;2022-07-10T08:37:36;16.70;99.90
16417;DHT22;8317;52.186;5.688;2022-07-10T08:40:05;16.70;99.90
16417;DHT22;8317;52.186;5.688;2022-07-10T08:42:34;16.80;99.90
16417;DHT22;8317;52.186;5.688;2022-07-10T08:45:01;16.80;99.90
16417;DHT22;8317;52.186;5.688;2022-07-10T08:47:28;16.80;99.90
16417;DHT22;8317;52.186;5.688;2022-07-10T08:49:57;16.80;99.90
16417;DHT22;8317;52.186;5.688;2022-07-10T08:52:26;16.90;99.90
16417;DHT22;8317;52.186;5.688;2022-07-10T08:54:57;16.90;99.90
16417;DHT22;8317;52.186;5.688;2022-07-10T08:57:26;17.00;99.90
16417;DHT22;8317;52.186;5.688;2022-07-10T08:59:56;17.10;99.90
16417;DHT22;8317;52.186;5.688;2022-07-10T09:02:23;17.20;99.90
16417;DHT22;8317;52.186;5.688;2022-07-10T09:04:50;17.40;99.90
16417;DHT22;8317;52.186;5.688;2022-07-10T09:07:17;17.60;99.90
16417;DHT22;8317;52.186;5.688;2022-07-10T09:09:54;17.70;99.90
16417;DHT22;8317;52.186;5.688;2022-07-10T09:12:22;17.70;99.90
16417;DHT22;8317;52.186;5.688;2022-07-10T09:14:49;17.60;99.90
16417;DHT22;8317;52.186;5.688;2022-07-10T09:17:18;17.60;99.90
16417;DHT22;8317;52.186;5.688;2022-07-10T09:19:45;17.40;99.90
16417;DHT22;8317;52.186;5.688;2022-07-10T09:22:12;17.50;99.90
16417;DHT22;8317;52.186;5.688;2022-07-10T09:24:42;17.70;99.90
16417;DHT22;8317;52.186;5.688;2022-07-10T09:27:10;17.70;99.90
16417;DHT22;8317;52.186;5.688;2022-07-10T09:29:47;17.70;99.90
16417;DHT22;8317;52.186;5.688;2022-07-10T09:32:18;17.80;99.90
16417;DHT22;8317;52.186;5.688;2022-07-10T09:34:46;18.00;99.90
16417;DHT22;8317;52.186;5.688;2022-07-10T09:37:24;17.90;99.90
16417;DHT22;8317;52.186;5.688;2022-07-10T09:39:57;18.00;99.90
16417;DHT22;8317;52.186;5.688;2022-07-10T09:42:32;18.20;99.90
16417;DHT22;8317;52.186;5.688;2022-07-10T09:45:15;18.40;99.90
16417;DHT22;8317;52.186;5.688;2022-07-10T09:47:45;18.70;99.90
16417;DHT22;8317;52.186;5.688;2022-07-10T09:50:23;18.80;99.90
16417;DHT22;8317;52.186;5.688;2022-07-10T09:52:51;19.20;99.90
16417;DHT22;8317;52.186;5.688;2022-07-10T09:55:20;18.90;99.90
16417;DHT22;8317;52.186;5.688;2022-07-10T09:57:54;18.70;99.90
16417;DHT22;8317;52.186;5.688;2022-07-10T10:00:23;18.70;99.90
16417;DHT22;8317;52.186;5.688;2022-07-10T10:02:56;18.50;99.90
16417;DHT22;8317;52.186;5.688;2022-07-10T10:05:30;18.60;99.90
16417;DHT22;8317;52.186;5.688;2022-07-10T10:08:00;18.70;99.90
16417;DHT22;8317;52.186;5.688;2022-07-10T10:10:29;18.80;99.90
16417;DHT22;8317;52.186;5.688;2022-07-10T10:12:59;19.20;99.90
16417;DHT22;8317;52.186;5.688;2022-07-10T10:15:30;19.70;99.90
16417;DHT22;8317;52.186;5.688;2022-07-10T10:17:59;19.40;99.90
16417;DHT22;8317;52.186;5.688;2022-07-10T10:20:27;19.50;99.90
16417;DHT22;8317;52.186;5.688;2022-07-10T10:23:04;19.40;99.90
16417;DHT22;8317;52.186;5.688;2022-07-10T10:25:32;19.20;99.90
16417;DHT22;8317;52.186;5.688;2022-07-10T10:28:01;19.00;99.90
16417;DHT22;8317;52.186;5.688;2022-07-10T10:30:30;18.90;99.90
16417;DHT22;8317;52.186;5.688;2022-07-10T10:32:59;18.70;99.90
16417;DHT22;8317;52.186;5.688;2022-07-10T10:35:42;18.60;99.90
16417;DHT22;8317;52.186;5.688;2022-07-10T10:38:09;18.50;99.90
16417;DHT22;8317;52.186;5.688;2022-07-10T10:40:36;18.50;99.90
16417;DHT22;8317;52.186;5.688;2022-07-10T10:43:16;18.70;99.90
16417;DHT22;8317;52.186;5.688;2022-07-10T10:45:45;18.80;99.90
16417;DHT22;8317;52.186;5.688;2022-07-10T10:48:14;19.10;99.90
16417;DHT22;8317;52.186;5.688;2022-07-10T10:50:45;19.20;99.90
16417;DHT22;8317;52.186;5.688;2022-07-10T10:53:16;19.50;99.90
16417;DHT22;8317;52.186;5.688;2022-07-10T10:56:22;19.30;99.90
16417;DHT22;8317;52.186;5.688;2022-07-10T10:58:49;19.20;99.90
16417;DHT22;8317;52.186;5.688;2022-07-10T11:01:27;18.90;99.90
16417;DHT22;8317;52.186;5.688;2022-07-10T11:04:15;18.80;99.90
16417;DHT22;8317;52.186;5.688;2022-07-10T11:06:45;19.00;99.90
16417;DHT22;8317;52.186;5.688;2022-07-10T11:09:22;19.10;99.90
16417;DHT22;8317;52.186;5.688;2022-07-10T11:12:03;19.20;99.90
16417;DHT22;8317;52.186;5.688;2022-07-10T11:14:32;19.40;99.90
16417;DHT22;8317;52.186;5.688;2022-07-10T11:16:59;19.20;99.90
16417;DHT22;8317;52.186;5.688;2022-07-10T11:19:28;19.30;99.90
16417;DHT22;8317;52.186;5.688;2022-07-10T11:22:12;19.40;99.90
16417;DHT22;8317;52.186;5.688;2022-07-10T11:24:48;19.70;99.90
16417;DHT22;8317;52.186;5.688;2022-07-10T11:27:28;19.70;99.90
16417;DHT22;8317;52.186;5.688;2022-07-10T11:29:58;19.90;99.90
16417;DHT22;8317;52.186;5.688;2022-07-10T11:32:25;20.00;99.90
16417;DHT22;8317;52.186;5.688;2022-07-10T11:34:54;19.70;99.90
16417;DHT22;8317;52.186;5.688;2022-07-10T11:37:21;19.60;99.90
16417;DHT22;8317;52.186;5.688;2022-07-10T11:39:50;19.20;99.90
16417;DHT22;8317;52.186;5.688;2022-07-10T11:42:17;19.20;99.90
16417;DHT22;8317;52.186;5.688;2022-07-10T11:44:44;19.30;99.90
16417;DHT22;8317;52.186;5.688;2022-07-10T11:47:11;19.10;99.90
16417;DHT22;8317;52.186;5.688;2022-07-10T11:49:44;19.10;99.90
16417;DHT22;8317;52.186;5.688;2022-07-10T11:52:13;19.20;99.90
16417;DHT22;8317;52.186;5.688;2022-07-10T11:54:40;19.30;99.90
16417;DHT22;8317;52.186;5.688;2022-07-10T11:57:09;19.20;99.90
16417;DHT22;8317;52.186;5.688;2022-07-10T11:59:36;19.40;99.90
16417;DHT22;8317;52.186;5.688;2022-07-10T12:02:04;19.50;99.90
16417;DHT22;8317;52.186;5.688;2022-07-10T12:04:32;19.70;99.90
16417;DHT22;8317;52.186;5.688;2022-07-10T12:06:59;19.70;99.90
16417;DHT22;8317;52.186;5.688;2022-07-10T12:09:27;19.90;99.90
16417;DHT22;8317;52.186;5.688;2022-07-10T12:11:59;19.80;99.90
16417;DHT22;8317;52.186;5.688;2022-07-10T12:14:27;19.80;99.90
16417;DHT22;8317;52.186;5.688;2022-07-10T12:16:55;20.00;99.90
16417;DHT22;8317;52.186;5.688;2022-07-10T12:19:24;19.90;99.90
16417;DHT22;8317;52.186;5.688;2022-07-10T12:21:53;19.90;99.90
16417;DHT22;8317;52.186;5.688;2022-07-10T12:24:20;20.00;99.90
16417;DHT22;8317;52.186;5.688;2022-07-10T12:26:50;20.10;99.90
16417;DHT22;8317;52.186;5.688;2022-07-10T12:29:23;20.10;99.90
16417;DHT22;8317;52.186;5.688;2022-07-10T12:31:52;20.20;99.90
16417;DHT22;8317;52.186;5.688;2022-07-10T12:34:20;20.40;99.90
16417;DHT22;8317;52.186;5.688;2022-07-10T12:36:58;20.50;99.90
16417;DHT22;8317;52.186;5.688;2022-07-10T12:39:36;20.40;99.90
16417;DHT22;8317;52.186;5.688;2022-07-10T12:42:06;20.30;99.90
16417;DHT22;8317;52.186;5.688;2022-07-10T12:44:36;20.30;99.90
16417;DHT22;8317;52.186;5.688;2022-07-10T12:47:04;20.50;99.90
16417;DHT22;8317;52.186;5.688;2022-07-10T12:49:51;20.60;99.90
16417;DHT22;8317;52.186;5.688;2022-07-10T12:52:26;20.80;99.90
16417;DHT22;8317;52.186;5.688;2022-07-10T12:55:14;21.00;99.90
16417;DHT22;8317;52.186;5.688;2022-07-10T12:57:50;21.10;99.90
16417;DHT22;8317;52.186;5.688;2022-07-10T13:00:19;20.80;99.90
16417;DHT22;8317;52.186;5.688;2022-07-10T13:02:46;20.90;99.90
16417;DHT22;8317;52.186;5.688;2022-07-10T13:05:28;21.10;99.90
16417;DHT22;8317;52.186;5.688;2022-07-10T13:08:05;20.90;99.90
16417;DHT22;8317;52.186;5.688;2022-07-10T13:10:33;21.10;99.90
16417;DHT22;8317;52.186;5.688;2022-07-10T13:13:03;21.10;99.90
16417;DHT22;8317;52.186;5.688;2022-07-10T13:15:30;21.40;99.90
16417;DHT22;8317;52.186;5.688;2022-07-10T13:17:57;21.50;99.90
16417;DHT22;8317;52.186;5.688;2022-07-10T13:20:24;21.30;99.90
16417;DHT22;8317;52.186;5.688;2022-07-10T13:22:51;21.40;99.90
16417;DHT22;8317;52.186;5.688;2022-07-10T13:25:17;21.20;99.90
16417;DHT22;8317;52.186;5.688;2022-07-10T13:27:44;21.30;99.90
16417;DHT22;8317;52.186;5.688;2022-07-10T13:30:13;21.20;99.90
16417;DHT22;8317;52.186;5.688;2022-07-10T13:32:40;21.30;99.90
16417;DHT22;8317;52.186;5.688;2022-07-10T13:35:07;21.20;99.90
16417;DHT22;8317;52.186;5.688;2022-07-10T13:37:34;21.20;99.90
16417;DHT22;8317;52.186;5.688;2022-07-10T13:40:01;21.20;99.90
16417;DHT22;8317;52.186;5.688;2022-07-10T13:42:29;21.10;99.90
16417;DHT22;8317;52.186;5.688;2022-07-10T13:44:56;21.20;99.90
16417;DHT22;8317;52.186;5.688;2022-07-10T13:47:24;21.10;99.90
16417;DHT22;8317;52.186;5.688;2022-07-10T13:49:51;21.20;99.90
16417;DHT22;8317;52.186;5.688;2022-07-10T13:52:19;21.00;99.90
16417;DHT22;8317;52.186;5.688;2022-07-10T13:54:46;21.10;99.90
16417;DHT22;8317;52.186;5.688;2022-07-10T13:57:13;21.20;99.90
16417;DHT22;8317;52.186;5.688;2022-07-10T13:59:40;21.10;99.90
16417;DHT22;8317;52.186;5.688;2022-07-10T14:02:07;21.20;99.90
16417;DHT22;8317;52.186;5.688;2022-07-10T14:04:35;21.30;99.90
16417;DHT22;8317;52.186;5.688;2022-07-10T14:07:03;21.50;99.90
16417;DHT22;8317;52.186;5.688;2022-07-10T14:09:29;21.70;99.90
16417;DHT22;8317;52.186;5.688;2022-07-10T14:11:56;21.80;99.90
16417;DHT22;8317;52.186;5.688;2022-07-10T14:14:23;21.60;99.90
16417;DHT22;8317;52.186;5.688;2022-07-10T14:16:50;21.80;99.90
16417;DHT22;8317;52.186;5.688;2022-07-10T14:19:17;21.90;99.90
16417;DHT22;8317;52.186;5.688;2022-07-10T14:21:45;22.00;99.90
16417;DHT22;8317;52.186;5.688;2022-07-10T14:24:12;21.90;99.90
16417;DHT22;8317;52.186;5.688;2022-07-10T14:26:40;21.70;99.90
16417;DHT22;8317;52.186;5.688;2022-07-10T14:29:07;21.70;99.90
16417;DHT22;8317;52.186;5.688;2022-07-10T14:31:34;21.80;99.90
16417;DHT22;8317;52.186;5.688;2022-07-10T14:34:01;21.80;99.90
16417;DHT22;8317;52.186;5.688;2022-07-10T14:36:28;21.80;99.90
16417;DHT22;8317;52.186;5.688;2022-07-10T14:38:56;21.70;99.90
16417;DHT22;8317;52.186;5.688;2022-07-10T14:41:24;21.60;99.90
16417;DHT22;8317;52.186;5.688;2022-07-10T14:43:51;21.50;99.90
16417;DHT22;8317;52.186;5.688;2022-07-10T14:46:18;21.30;99.90
16417;DHT22;8317;52.186;5.688;2022-07-10T14:48:44;21.20;99.90
16417;DHT22;8317;52.186;5.688;2022-07-10T14:51:11;21.20;99.90
16417;DHT22;8317;52.186;5.688;2022-07-10T14:53:38;21.30;99.90
16417;DHT22;8317;52.186;5.688;2022-07-10T14:56:08;21.30;99.90
16417;DHT22;8317;52.186;5.688;2022-07-10T14:58:36;21.40;99.90
16417;DHT22;8317;52.186;5.688;2022-07-10T15:01:03;21.40;99.90
16417;DHT22;8317;52.186;5.688;2022-07-10T15:03:30;21.50;99.90
16417;DHT22;8317;52.186;5.688;2022-07-10T15:05:57;21.50;99.90
16417;DHT22;8317;52.186;5.688;2022-07-10T15:08:24;21.60;99.90
16417;DHT22;8317;52.186;5.688;2022-07-10T15:10:51;21.80;99.90
16417;DHT22;8317;52.186;5.688;2022-07-10T15:13:20;22.00;99.90
16417;DHT22;8317;52.186;5.688;2022-07-10T15:15:46;22.30;99.90
16417;DHT22;8317;52.186;5.688;2022-07-10T15:18:15;22.20;99.90
16417;DHT22;8317;52.186;5.688;2022-07-10T15:20:42;22.10;99.90
16417;DHT22;8317;52.186;5.688;2022-07-10T15:23:09;21.80;99.90
16417;DHT22;8317;52.186;5.688;2022-07-10T15:25:35;21.80;99.90
16417;DHT22;8317;52.186;5.688;2022-07-10T15:28:05;21.70;99.90
16417;DHT22;8317;52.186;5.688;2022-07-10T15:30:34;21.50;99.90
16417;DHT22;8317;52.186;5.688;2022-07-10T15:33:01;21.40;99.90
16417;DHT22;8317;52.186;5.688;2022-07-10T15:35:28;21.40;99.90
16417;DHT22;8317;52.186;5.688;2022-07-10T15:37:55;21.30;99.90
16417;DHT22;8317;52.186;5.688;2022-07-10T15:40:24;21.30;99.90
16417;DHT22;8317;52.186;5.688;2022-07-10T15:42:51;21.20;99.90
16417;DHT22;8317;52.186;5.688;2022-07-10T15:45:18;21.10;99.90
16417;DHT22;8317;52.186;5.688;2022-07-10T15:47:46;21.00;99.90
16417;DHT22;8317;52.186;5.688;2022-07-10T15:50:13;21.00;99.90
16417;DHT22;8317;52.186;5.688;2022-07-10T15:52:40;21.00;99.90